Time;durP1;ratioP1;P1;durP2;ratioP2;P2;SDS_P1;SDS_P2;PMS_P1;PMS_P2;Temp;Humidity;BMP_temperature;BMP_pressure;BME280_temperature;BME280_humidity;BME280_pressure;Samples;Min_cycle;Max_cycle;Signal;HPM_P1;HPM_P2
2022/05/16 00:01:25;;;;;;;6.38;2.80;;;17.90;94.20;;;;;;5032030;28;20026;-71
2022/05/16 00:03:50;;;;;;;8.13;3.08;;;17.70;83.20;;;;;;5031426;28;20478;-70
2022/05/16 00:06:16;;;;;;;8.13;3.10;;;17.20;93.90;;;;;;5031630;28;20029;-71
2022/05/16 00:08:41;;;;;;;5.97;2.53;;;17.40;94.00;;;;;;5032036;28;20033;-71
2022/05/16 00:11:07;;;;;;;8.85;3.35;;;17.50;83.90;;;;;;5031342;28;20443;-71
2022/05/16 00:13:32;;;;;;;10.85;3.38;;;17.50;94.70;;;;;;5027468;28;20038;-71
2022/05/16 00:16:00;;;;;;;11.18;4.10;;;17.50;84.40;;;;;;5011795;28;20057;-71
2022/05/16 00:18:26;;;;;;;8.43;3.10;;;17.40;84.50;;;;;;5011603;28;20034;-71
2022/05/16 00:20:51;;;;;;;10.48;3.30;;;17.00;94.40;;;;;;5011629;28;20481;-70
2022/05/16 00:23:17;;;;;;;9.00;3.60;;;17.10;94.70;;;;;;5011637;28;20415;-71
2022/05/16 00:25:42;;;;;;;6.78;3.05;;;17.30;94.60;;;;;;5011615;28;20062;-71
2022/05/16 00:28:08;;;;;;;9.93;3.40;;;17.30;95.20;;;;;;5011741;28;20099;-71
2022/05/16 00:30:33;;;;;;;6.63;3.00;;;17.20;85.50;;;;;;5011830;28;20444;-71
2022/05/16 00:32:59;;;;;;;8.95;3.08;;;17.30;94.90;;;;;;5010760;28;20053;-71
2022/05/16 00:35:25;;;;;;;9.25;3.17;;;17.00;85.60;;;;;;5011806;28;20468;-71
2022/05/16 00:37:50;;;;;;;7.32;2.80;;;16.70;95.10;;;;;;5010103;28;20197;-71
2022/05/16 00:40:17;;;;;;;12.70;3.67;;;17.30;95.30;;;;;;5011562;28;20097;-71
2022/05/16 00:42:43;;;;;;;10.25;3.10;;;17.10;95.30;;;;;;5011314;28;20109;-71
2022/05/16 00:45:12;;;;;;;13.35;3.45;;;17.20;95.30;;;;;;5027970;28;20554;-70
2022/05/16 00:47:37;;;;;;;8.85;3.13;;;;;;;;;;5031002;28;20064;-71
2022/05/16 00:50:05;;;;;;;10.27;4.05;;;17.20;95.70;;;;;;5029900;28;20150;-71
2022/05/16 00:52:37;;;;;;;9.07;3.60;;;17.00;95.80;;;;;;5031322;28;20418;-71
2022/05/16 00:55:19;;;;;;;7.15;3.22;;;17.00;95.70;;;;;;5030529;28;20025;-71
2022/05/16 00:57:48;;;;;;;5.57;3.05;;;17.10;95.90;;;;;;5030763;28;20578;-71
2022/05/16 01:00:24;;;;;;;12.23;3.25;;;17.00;95.90;;;;;;5030360;28;20427;-71
2022/05/16 01:05:38;;;;;;;12.43;4.35;;;17.00;95.90;;;;;;5031085;28;20125;-71
2022/05/16 01:08:08;;;;;;;8.88;3.42;;;16.90;96.10;;;;;;5030330;28;20510;-70
2022/05/16 01:10:34;;;;;;;9.20;3.42;;;16.80;96.40;;;;;;5030819;28;20049;-71
2022/05/16 01:13:03;;;;;;;14.15;3.63;;;16.90;96.30;;;;;;5028262;28;20042;-71
2022/05/16 01:15:38;;;;;;;8.93;3.80;;;16.70;89.20;;;;;;5025554;28;20046;-71
2022/05/16 01:18:05;;;;;;;11.85;3.95;;;16.60;96.20;;;;;;5010528;28;20471;-71
2022/05/16 01:21:01;;;;;;;13.93;3.72;;;16.50;96.70;;;;;;5010856;28;20029;-71
2022/05/16 01:23:33;;;;;;;9.05;2.75;;;16.80;96.50;;;;;;5010929;28;20038;-71
2022/05/16 01:26:00;;;;;;;6.20;2.50;;;16.80;96.60;;;;;;5010310;28;20026;-71
2022/05/16 01:28:26;;;;;;;6.85;3.03;;;16.50;96.60;;;;;;5010838;28;20061;-71
2022/05/16 01:30:54;;;;;;;7.22;3.00;;;16.70;96.70;;;;;;5010117;28;20073;-71
2022/05/16 01:33:22;;;;;;;9.63;3.67;;;16.30;96.60;;;;;;5010230;28;20038;-71
2022/05/16 01:35:49;;;;;;;7.25;4.25;;;16.70;96.80;;;;;;5010295;28;20030;-71
2022/05/16 01:38:21;;;;;;;10.25;3.78;;;16.80;96.80;;;;;;5010339;28;20454;-71
2022/05/16 01:40:52;;;;;;;14.43;4.95;;;16.70;96.70;;;;;;5010379;28;20120;-71
2022/05/16 01:43:20;;;;;;;6.95;3.00;;;16.70;96.90;;;;;;5013913;28;20401;-71
2022/05/16 01:45:46;;;;;;;6.97;3.65;;;16.50;96.90;;;;;;5029569;28;20025;-71
2022/05/16 01:48:13;;;;;;;12.35;3.17;;;15.50;96.70;;;;;;5029840;28;20489;-71
2022/05/16 01:50:40;;;;;;;9.82;3.80;;;16.60;97.00;;;;;;5030170;28;20033;-71
2022/05/16 01:53:06;;;;;;;9.27;3.67;;;16.60;97.00;;;;;;5029536;28;20056;-71
2022/05/16 01:55:32;;;;;;;6.68;3.05;;;16.80;97.30;;;;;;5030072;28;20506;-71
2022/05/16 01:57:57;;;;;;;9.05;4.40;;;16.50;97.20;;;;;;5029302;28;20037;-71
2022/05/16 02:00:23;;;;;;;8.05;3.45;;;16.40;97.20;;;;;;5029711;28;20108;-71
2022/05/16 02:02:49;;;;;;;9.93;3.65;;;16.60;97.40;;;;;;5029845;28;20032;-71
2022/05/16 02:05:18;;;;;;;5.25;3.08;;;16.60;97.50;;;;;;5027943;28;20042;-71
2022/05/16 02:07:45;;;;;;;12.40;4.68;;;16.30;97.40;;;;;;5028178;28;20461;-71
2022/05/16 02:10:12;;;;;;;9.23;3.90;;;16.40;97.50;;;;;;5029527;28;20036;-71
2022/05/16 02:12:38;;;;;;;10.82;3.70;;;16.20;97.60;;;;;;5027999;28;20369;-71
2022/05/16 02:15:06;;;;;;;12.05;4.35;;;16.50;97.50;;;;;;5027665;28;20442;-71
2022/05/16 02:17:31;;;;;;;10.07;3.63;;;16.30;97.40;;;;;;5029486;28;20114;-71
2022/05/16 02:19:57;;;;;;;8.05;3.58;;;16.10;97.60;;;;;;5029330;28;20066;-71
2022/05/16 02:25:07;;;;;;;10.32;3.42;;;16.10;97.80;;;;;;5029070;28;20029;-71
2022/05/16 02:27:33;;;;;;;11.45;4.05;;;16.30;98.00;;;;;;5029050;28;20037;-71
2022/05/16 02:29:58;;;;;;;8.52;4.22;;;16.10;97.90;;;;;;5027490;28;20087;-71
2022/05/16 02:32:24;;;;;;;7.55;3.95;;;16.10;98.20;;;;;;5029338;28;20042;-71
2022/05/16 02:34:50;;;;;;;14.25;4.45;;;16.20;98.00;;;;;;5029346;28;20121;-71
2022/05/16 02:37:16;;;;;;;8.02;3.35;;;16.20;98.20;;;;;;5009714;28;20030;-71
2022/05/16 02:39:44;;;;;;;10.68;4.05;;;16.10;98.10;;;;;;5008662;28;20026;-71
2022/05/16 02:42:11;;;;;;;6.65;3.15;;;16.30;98.20;;;;;;5008215;28;20018;-71
2022/05/16 02:44:38;;;;;;;8.80;3.35;;;15.90;98.20;;;;;;5009526;28;20037;-71
2022/05/16 02:47:05;;;;;;;6.18;3.47;;;16.20;98.30;;;;;;5009091;28;20026;-73
2022/05/16 02:49:31;;;;;;;7.53;4.35;;;15.90;98.40;;;;;;5009617;28;20041;-71
2022/05/16 02:51:56;;;;;;;6.20;3.42;;;15.90;98.40;;;;;;5009338;28;20026;-71
2022/05/16 02:54:22;;;;;;;9.45;5.53;;;;;;;;;;5009229;28;20033;-70
2022/05/16 02:56:48;;;;;;;9.52;4.10;;;15.90;98.50;;;;;;5025647;28;20045;-70
2022/05/16 02:59:14;;;;;;;10.73;4.32;;;15.80;98.50;;;;;;5028838;28;20033;-70
2022/05/16 03:01:39;;;;;;;9.75;4.22;;;15.80;98.60;;;;;;5029017;28;20516;-70
2022/05/16 03:04:05;;;;;;;11.82;4.68;;;16.00;98.80;;;;;;5027228;28;20026;-70
2022/05/16 03:06:30;;;;;;;9.68;4.78;;;15.90;98.90;;;;;;5028921;28;20399;-70
2022/05/16 03:08:56;;;;;;;8.02;4.28;;;15.90;98.90;;;;;;5028800;28;20132;-70
2022/05/16 03:11:22;;;;;;;9.32;3.92;;;15.90;99.00;;;;;;5028263;28;20053;-70
2022/05/16 03:13:48;;;;;;;7.43;4.40;;;15.90;96.70;;;;;;5031226;28;20038;-70
2022/05/16 03:16:14;;;;;;;10.30;4.30;;;16.00;95.40;;;;;;5032146;28;20045;-72
2022/05/16 03:18:39;;;;;;;12.27;4.10;;;15.70;99.10;;;;;;5032381;28;20033;-70
2022/05/16 03:21:06;;;;;;;8.25;4.07;;;15.90;99.20;;;;;;5032265;28;20029;-70
2022/05/16 03:23:32;;;;;;;9.10;4.38;;;15.60;99.30;;;;;;5032869;28;20052;-70
2022/05/16 03:25:57;;;;;;;11.52;4.57;;;15.70;99.20;;;;;;5032168;28;20408;-70
2022/05/16 03:28:23;;;;;;;6.75;3.80;;;15.80;99.40;;;;;;5032324;28;20025;-70
2022/05/16 03:30:48;;;;;;;8.68;4.05;;;15.70;99.60;;;;;;5032454;28;20033;-70
2022/05/16 03:33:15;;;;;;;10.68;5.28;;;15.20;99.60;;;;;;5032233;28;20041;-70
2022/05/16 03:35:40;;;;;;;14.15;4.45;;;15.40;99.70;;;;;;5029445;28;20148;-70
2022/05/16 03:38:06;;;;;;;9.30;4.15;;;15.50;99.80;;;;;;5032178;28;20530;-70
2022/05/16 03:40:45;;;;;;;9.23;3.35;;;15.60;99.80;;;;;;5032053;28;20210;-70
2022/05/16 03:43:13;;;;;;;10.32;5.22;;;15.50;99.90;;;;;;5032474;28;20034;-70
2022/05/16 03:45:39;;;;;;;10.88;4.45;;;15.60;99.90;;;;;;5032261;28;20351;-70
2022/05/16 03:48:06;;;;;;;6.50;3.80;;;15.60;99.90;;;;;;5032002;28;20032;-70
2022/05/16 03:50:32;;;;;;;12.32;4.47;;;15.60;99.90;;;;;;5030982;28;20033;-70
2022/05/16 03:53:00;;;;;;;8.55;3.78;;;15.40;94.80;;;;;;5031970;28;20037;-70
2022/05/16 03:55:27;;;;;;;12.07;5.00;;;15.50;93.30;;;;;;5031859;28;20022;-70
2022/05/16 03:57:53;;;;;;;7.40;4.30;;;15.50;99.10;;;;;;5031861;28;20035;-71
2022/05/16 04:00:19;;;;;;;6.28;3.28;;;15.50;99.90;;;;;;5032110;28;20030;-70
2022/05/16 04:02:45;;;;;;;7.82;4.13;;;;;;;;;;5031998;28;20500;-70
2022/05/16 04:05:18;;;;;;;7.78;4.20;;;15.50;99.90;;;;;;5020460;28;20533;-71
2022/05/16 04:07:44;;;;;;;7.80;3.80;;;15.40;99.90;;;;;;5012035;28;20471;-71
2022/05/16 04:10:09;;;;;;;10.85;4.45;;;15.40;99.90;;;;;;5011598;28;20080;-71
2022/05/16 04:12:36;;;;;;;9.77;4.35;;;15.50;99.90;;;;;;5012180;28;20038;-71
2022/05/16 04:15:02;;;;;;;11.27;5.20;;;15.20;93.50;;;;;;5011481;28;20049;-70
2022/05/16 04:17:27;;;;;;;7.97;3.95;;;15.50;99.90;;;;;;5012082;28;20080;-71
2022/05/16 04:19:53;;;;;;;9.02;4.30;;;;;;;;;;5011859;28;20384;-72
2022/05/16 04:22:19;;;;;;;9.20;3.88;;;15.30;99.90;;;;;;5011709;28;20152;-71
2022/05/16 04:24:44;;;;;;;7.25;3.83;;;15.10;99.90;;;;;;5010112;28;20328;-71
2022/05/16 04:27:10;;;;;;;8.20;4.43;;;15.30;99.90;;;;;;5011901;28;20363;-71
2022/05/16 04:29:36;;;;;;;9.32;5.00;;;15.50;99.90;;;;;;5011846;28;20339;-71
2022/05/16 04:32:02;;;;;;;10.40;4.38;;;;;;;;;;5011265;28;20105;-71
2022/05/16 04:34:27;;;;;;;8.45;4.40;;;15.30;99.90;;;;;;5017290;28;20028;-71
2022/05/16 04:36:53;;;;;;;8.73;4.05;;;15.40;99.90;;;;;;5031086;28;20396;-71
2022/05/16 04:39:18;;;;;;;14.02;4.80;;;;;;;;;;5031133;28;20033;-71
2022/05/16 04:44:28;;;;;;;;;;;15.40;94.00;;;;;;5032013;28;20024;-71
2022/05/16 04:46:53;;;;;;;9.10;4.53;;;15.60;99.90;;;;;;5031220;28;19905;-71
2022/05/16 04:49:19;;;;;;;6.55;4.28;;;;;;;;;;5031075;28;20340;-71
2022/05/16 04:51:45;;;;;;;9.65;4.50;;;15.40;99.90;;;;;;5030974;28;20056;-71
2022/05/16 04:54:10;;;;;;;11.88;5.35;;;15.60;99.90;;;;;;5030431;28;20133;-71
2022/05/16 04:56:36;;;;;;;7.75;4.97;;;15.00;99.90;;;;;;5031304;28;20052;-71
2022/05/16 04:59:03;;;;;;;12.27;6.22;;;15.70;99.90;;;;;;5030792;28;20029;-70
2022/05/16 05:01:28;;;;;;;11.15;5.35;;;15.50;99.90;;;;;;5031077;28;20095;-71
2022/05/16 05:03:54;;;;;;;8.50;4.90;;;15.90;99.90;;;;;;5028541;28;20491;-71
2022/05/16 05:06:20;;;;;;;9.88;5.65;;;16.00;99.90;;;;;;5010883;28;20380;-71
2022/05/16 05:08:46;;;;;;;10.30;5.03;;;16.00;99.90;;;;;;5010454;28;20018;-71
2022/05/16 05:16:39;;;;;;;9.38;4.32;;;16.00;93.60;;;;;;5016066;28;20049;-71
2022/05/16 05:19:05;;;;;;;11.77;5.75;;;16.40;99.90;;;;;;5010465;28;20029;-71
2022/05/16 05:21:31;;;;;;;11.32;5.18;;;16.20;99.90;;;;;;5010642;28;20030;-71
2022/05/16 05:23:57;;;;;;;9.55;5.63;;;16.10;99.90;;;;;;5025941;28;20116;-71
2022/05/16 05:26:22;;;;;;;9.35;4.88;;;16.30;99.90;;;;;;5010680;28;20391;-71
2022/05/16 05:28:48;;;;;;;8.95;5.03;;;16.40;99.90;;;;;;5010672;28;20033;-71
2022/05/16 05:31:16;;;;;;;9.45;5.35;;;16.30;99.90;;;;;;5010473;28;20467;-71
2022/05/16 05:33:42;;;;;;;7.25;4.15;;;16.20;99.90;;;;;;5013320;28;20042;-71
2022/05/16 05:36:09;;;;;;;9.77;5.38;;;16.40;99.90;;;;;;5029556;28;20033;-71
2022/05/16 05:38:36;;;;;;;8.00;5.60;;;16.40;99.90;;;;;;5012402;28;20037;-71
2022/05/16 05:41:06;;;;;;;9.45;6.20;;;16.70;99.90;;;;;;5010179;28;20045;-71
2022/05/16 05:43:32;;;;;;;8.88;5.25;;;16.70;99.90;;;;;;5013337;28;20022;-71
2022/05/16 05:45:57;;;;;;;9.23;4.63;;;16.70;99.90;;;;;;5020032;28;20022;-71
2022/05/16 05:48:23;;;;;;;9.90;5.63;;;16.90;99.90;;;;;;5017439;28;20029;-71
2022/05/16 05:50:49;;;;;;;12.38;6.70;;;16.90;99.90;;;;;;5014953;28;20034;-72
2022/05/16 05:53:14;;;;;;;11.65;6.57;;;16.90;99.90;;;;;;5011587;28;20030;-71
2022/05/16 05:55:40;;;;;;;11.32;6.05;;;17.00;99.90;;;;;;5030398;28;20022;-71
2022/05/16 05:58:06;;;;;;;8.85;5.88;;;16.70;93.70;;;;;;5044776;28;20112;-71
2022/05/16 06:00:32;;;;;;;10.50;6.05;;;16.70;93.90;;;;;;5030229;28;20028;-71
2022/05/16 06:03:00;;;;;;;11.07;5.53;;;16.60;99.90;;;;;;5029782;28;20393;-71
2022/05/16 06:05:26;;;;;;;12.95;6.20;;;16.80;94.00;;;;;;5029743;28;20080;-71
2022/05/16 06:07:52;;;;;;;12.77;7.00;;;17.10;99.90;;;;;;5028621;28;20032;-71
2022/05/16 06:10:17;;;;;;;14.10;6.57;;;17.00;99.90;;;;;;5029769;28;20030;-71
2022/05/16 06:12:43;;;;;;;14.07;7.03;;;17.10;93.60;;;;;;5029744;28;20042;-71
2022/05/16 06:15:10;;;;;;;14.25;6.05;;;17.30;93.50;;;;;;5029442;28;20560;-71
2022/05/16 06:17:36;;;;;;;11.48;6.63;;;17.50;93.40;;;;;;5028717;28;20057;-71
2022/05/16 06:20:03;;;;;;;13.10;6.20;;;17.50;99.90;;;;;;5028947;28;20738;-71
2022/05/16 06:22:34;;;;;;;15.18;6.28;;;17.70;93.20;;;;;;5029781;28;20104;-71
2022/05/16 06:25:46;;;;;;;13.43;6.78;;;17.70;99.90;;;;;;5026743;28;20363;-71
2022/05/16 06:27:46;;;;;;;10.95;6.85;;;17.70;99.90;;;;;;5020309;28;20443;-71
2022/05/16 06:30:12;;;;;;;12.85;7.70;;;17.70;99.90;;;;;;5010401;28;20065;-71
2022/05/16 06:32:38;;;;;;;9.98;5.93;;;17.60;93.40;;;;;;5010115;28;20044;-72
2022/05/16 06:35:04;;;;;;;9.50;6.43;;;17.60;93.40;;;;;;5009057;28;20053;-71
2022/05/16 06:37:29;;;;;;;11.35;5.80;;;17.60;93.20;;;;;;5008838;28;20033;-72
2022/05/16 06:39:55;;;;;;;8.32;5.95;;;17.80;93.20;;;;;;5009643;28;20097;-72
2022/05/16 06:42:20;;;;;;;10.20;5.93;;;18.00;93.00;;;;;;5009619;28;20080;-72
2022/05/16 06:44:46;;;;;;;8.05;5.10;;;18.20;92.70;;;;;;5009936;28;20072;-71
2022/05/16 06:47:12;;;;;;;11.45;5.00;;;18.40;92.50;;;;;;5009061;28;20340;-71
2022/05/16 06:49:37;;;;;;;10.80;5.40;;;18.60;92.30;;;;;;5010514;28;20026;-72
2022/05/16 06:52:03;;;;;;;13.90;6.68;;;18.80;92.10;;;;;;5008065;28;20053;-72
2022/05/16 06:54:29;;;;;;;8.63;5.40;;;18.80;91.70;;;;;;5009639;28;20038;-72
2022/05/16 06:56:54;;;;;;;8.43;6.13;;;19.00;91.70;;;;;;5009648;28;20091;-72
2022/05/16 06:59:20;;;;;;;11.52;5.90;;;20.10;91.90;;;;;;5018060;28;20491;-71
2022/05/16 07:01:46;;;;;;;12.57;6.63;;;18.90;91.70;;;;;;5026581;28;20022;-71
2022/05/16 07:04:11;;;;;;;10.75;5.80;;;18.90;91.80;;;;;;5028169;28;20026;-71
2022/05/16 07:06:37;;;;;;;8.90;5.00;;;19.00;92.00;;;;;;5029027;28;20017;-72
2022/05/16 07:09:03;;;;;;;9.70;4.97;;;19.00;91.80;;;;;;5028549;28;20108;-71
2022/05/16 07:11:30;;;;;;;10.80;4.93;;;19.10;91.80;;;;;;5029096;28;20026;-71
2022/05/16 07:13:55;;;;;;;8.75;5.10;;;19.20;91.70;;;;;;5043858;28;20120;-71
2022/05/16 07:16:21;;;;;;;8.70;4.55;;;19.30;91.50;;;;;;5028543;28;20192;-71
2022/05/16 07:18:46;;;;;;;12.57;5.88;;;19.50;91.40;;;;;;5027691;28;20485;-72
2022/05/16 07:21:12;;;;;;;10.88;6.50;;;19.60;91.40;;;;;;5028701;28;20457;-72
2022/05/16 07:23:38;;;;;;;8.60;5.63;;;19.70;90.50;;;;;;5028896;28;20474;-71
2022/05/16 07:28:47;;;;;;;11.02;6.70;;;19.90;90.20;;;;;;5028220;28;20029;-71
2022/05/16 07:31:13;;;;;;;9.10;6.03;;;20.10;90.70;;;;;;5027900;28;20022;-71
2022/05/16 07:33:39;;;;;;;10.77;6.20;;;20.00;90.70;;;;;;5028128;28;20112;-71
2022/05/16 07:36:05;;;;;;;14.50;6.25;;;20.20;90.60;;;;;;5028396;28;20083;-72
2022/05/16 07:38:31;;;;;;;11.68;5.57;;;20.20;90.70;;;;;;5028797;28;20029;-71
2022/05/16 07:40:56;;;;;;;8.10;3.90;;;20.30;90.60;;;;;;5025353;28;20037;-72
2022/05/16 07:43:24;;;;;;;7.15;4.78;;;20.30;90.60;;;;;;5028328;28;20041;-72
2022/05/16 07:45:49;;;;;;;9.60;4.70;;;20.30;90.50;;;;;;5028287;28;20025;-71
2022/05/16 07:48:15;;;;;;;11.52;4.75;;;20.70;90.30;;;;;;5027457;28;20025;-72
2022/05/16 07:50:41;;;;;;;6.68;3.72;;;20.50;90.20;;;;;;5029046;28;20215;-72
2022/05/16 07:53:11;;;;;;;8.70;5.03;;;20.60;90.10;;;;;;5028689;28;20091;-72
2022/05/16 07:55:44;;;;;;;7.88;4.97;;;20.80;90.10;;;;;;5021873;28;20022;-72
2022/05/16 07:58:09;;;;;;;7.85;4.57;;;20.80;88.20;;;;;;5020707;28;20061;-71
2022/05/16 08:00:35;;;;;;;8.55;4.93;;;20.80;89.80;;;;;;5031804;28;20068;-71
2022/05/16 08:03:02;;;;;;;7.97;4.82;;;20.90;89.50;;;;;;5031548;28;20087;-72
2022/05/16 08:05:27;;;;;;;8.93;4.47;;;21.00;89.30;;;;;;5031979;28;20053;-72
2022/05/16 08:10:41;;;;;;;8.70;5.18;;;21.50;86.90;;;;;;5027124;28;20072;-72
2022/05/16 08:13:09;;;;;;;9.23;4.75;;;21.40;88.80;;;;;;5019151;28;20029;-73
2022/05/16 08:15:38;;;;;;;7.55;4.25;;;21.50;88.30;;;;;;5023680;28;20050;-71
2022/05/16 08:18:05;;;;;;;8.95;4.70;;;21.50;88.00;;;;;;5030216;28;20517;-72
2022/05/16 08:20:32;;;;;;;12.38;5.15;;;21.60;87.00;;;;;;5031113;28;20017;-72
2022/05/16 08:22:57;;;;;;;9.15;5.63;;;21.60;87.00;;;;;;5029331;28;20176;-72
2022/05/16 08:25:23;;;;;;;6.57;4.28;;;21.60;86.50;;;;;;5030063;28;20108;-71
2022/05/16 08:27:50;;;;;;;7.00;4.22;;;21.90;86.70;;;;;;5031099;28;20034;-71
2022/05/16 08:30:16;;;;;;;8.85;4.32;;;21.70;86.60;;;;;;5029521;28;20021;-71
2022/05/16 08:32:43;;;;;;;9.15;5.50;;;23.00;87.10;;;;;;5031546;28;20040;-72
2022/05/16 08:35:11;;;;;;;9.07;4.55;;;22.00;86.20;;;;;;5031337;28;20025;-72
2022/05/16 08:40:33;;;;;;;5.10;3.92;;;23.30;86.70;;;;;;5029653;28;20033;-72
2022/05/16 08:43:31;;;;;;;9.70;4.28;;;23.10;87.10;;;;;;5030819;28;20036;-72
2022/05/16 08:46:32;;;;;;;7.07;4.80;;;22.20;85.00;;;;;;5014723;28;20112;-72
2022/05/16 08:49:01;;;;;;;11.95;6.18;;;22.20;85.20;;;;;;5030882;28;20025;-72
2022/05/16 08:51:31;;;;;;;9.10;4.95;;;20.90;85.90;;;;;;5031169;28;20033;-73
2022/05/16 08:53:59;;;;;;;8.32;5.18;;;22.10;86.70;;;;;;5030831;28;20569;-72
2022/05/16 08:56:30;;;;;;;7.65;4.80;;;22.30;86.80;;;;;;5031113;28;20068;-72
2022/05/16 08:59:12;;;;;;;8.15;5.13;;;22.50;86.30;;;;;;5030368;28;20025;-72
2022/05/16 09:01:50;;;;;;;7.13;4.20;;;22.70;86.40;;;;;;5030639;28;20021;-71
2022/05/16 09:04:24;;;;;;;12.82;6.15;;;22.70;85.00;;;;;;5029437;28;20049;-72
2022/05/16 09:06:57;;;;;;;14.02;5.30;;;23.00;82.20;;;;;;5029070;28;20090;-71
2022/05/16 09:09:32;;;;;;;6.00;4.05;;;22.90;84.50;;;;;;5030859;28;20104;-71
2022/05/16 09:12:15;;;;;;;5.78;3.80;;;23.20;84.50;;;;;;5029741;28;20071;-71
2022/05/16 09:15:06;;;;;;;11.50;4.38;;;23.50;82.80;;;;;;5026461;28;20045;-71
2022/05/16 09:17:34;;;;;;;4.88;3.38;;;23.40;84.10;;;;;;5030216;28;20033;-72
2022/05/16 09:20:15;;;;;;;5.05;3.85;;;23.70;80.40;;;;;;5018539;28;20026;-71
2022/05/16 09:22:55;;;;;;;6.53;3.47;;;24.00;80.30;;;;;;5012221;28;20447;-71
2022/05/16 09:25:24;;;;;;;8.07;3.40;;;24.30;79.50;;;;;;5044255;28;20025;-72
2022/05/16 09:30:39;;;;;;;7.38;4.65;;;24.50;79.70;;;;;;5030541;28;20047;-72
2022/05/16 09:33:11;;;;;;;5.18;3.30;;;24.40;79.00;;;;;;5028576;28;20048;-72
2022/05/16 09:35:37;;;;;;;4.03;2.28;;;24.50;79.40;;;;;;5028966;28;20080;-71
2022/05/16 09:38:04;;;;;;;7.90;3.42;;;24.70;78.50;;;;;;5029982;28;20033;-72
2022/05/16 09:40:39;;;;;;;4.57;3.03;;;24.60;78.70;;;;;;5030414;28;20037;-72
2022/05/16 09:43:20;;;;;;;5.55;2.70;;;24.70;79.40;;;;;;5029003;28;20029;-71
2022/05/16 09:45:51;;;;;;;4.93;2.83;;;24.70;77.30;;;;;;5029035;28;20033;-71
2022/05/16 09:48:22;;;;;;;4.72;2.88;;;24.40;79.10;;;;;;5029643;28;20022;-71
2022/05/16 09:50:56;;;;;;;3.67;2.42;;;24.50;79.30;;;;;;5030130;28;20029;-71
2022/05/16 09:53:33;;;;;;;6.55;2.47;;;24.50;80.00;;;;;;5029730;28;20112;-72
2022/05/16 09:56:03;;;;;;;4.43;3.05;;;24.60;79.70;;;;;;5026349;28;20025;-71
2022/05/16 09:58:47;;;;;;;6.00;3.13;;;24.50;78.90;;;;;;5029621;28;20061;-71
2022/05/16 10:01:27;;;;;;;6.50;2.83;;;26.90;80.00;;;;;;5029656;28;20026;-71
2022/05/16 10:03:52;;;;;;;7.72;3.40;;;25.00;77.70;;;;;;5029913;28;20192;-70
2022/05/16 10:06:31;;;;;;;5.05;2.63;;;25.10;77.30;;;;;;5028559;28;20513;-71
2022/05/16 10:09:06;;;;;;;4.28;2.60;;;25.20;77.40;;;;;;5029760;28;20055;-70
2022/05/16 10:11:32;;;;;;;6.22;2.22;;;25.20;77.10;;;;;;5029286;28;20026;-70
2022/05/16 10:13:58;;;;;;;5.15;2.45;;;25.10;76.60;;;;;;5023276;28;20048;-69
2022/05/16 10:16:29;;;;;;;5.65;2.83;;;25.80;77.60;;;;;;5028364;28;20041;-71
2022/05/16 10:19:14;;;;;;;3.95;2.30;;;25.10;77.20;;;;;;5028801;28;20040;-71
2022/05/16 10:22:05;;;;;;;8.70;4.00;;;25.40;75.30;;;;;;5028733;28;20092;-70
2022/05/16 10:24:41;;;;;;;4.05;2.80;;;25.60;76.90;;;;;;5029683;28;20029;-70
2022/05/16 10:27:11;;;;;;;5.95;3.50;;;25.80;76.00;;;;;;5028739;28;20049;-70
2022/05/16 10:29:40;;;;;;;5.55;2.85;;;26.00;74.90;;;;;;5029650;28;20045;-71
2022/05/16 10:35:21;;;;;;;4.63;1.85;;;26.90;72.10;;;;;;5028734;28;20037;-74
2022/05/16 10:37:49;;;;;;;4.68;2.25;;;27.30;72.50;;;;;;5029961;28;20018;-74
2022/05/16 10:40:31;;;;;;;5.30;2.05;;;27.30;71.40;;;;;;5028330;28;20402;-72
2022/05/16 10:43:25;;;;;;;3.13;1.50;;;27.30;71.20;;;;;;5029014;28;20474;-73
2022/05/16 10:45:57;;;;;;;2.83;1.92;;;27.50;69.30;;;;;;5029150;28;20640;-74
2022/05/16 10:48:50;;;;;;;4.57;3.20;;;27.50;70.60;;;;;;5027622;28;20033;-72
2022/05/16 10:52:00;;;;;;;5.83;4.10;;;27.50;68.80;;;;;;5029449;28;20280;-72
2022/05/16 10:54:29;;;;;;;5.05;2.22;;;27.20;68.10;;;;;;5018463;28;20041;-73
2022/05/16 10:57:10;;;;;;;5.75;2.35;;;27.00;69.90;;;;;;5020246;28;20025;-73
2022/05/16 10:59:58;;;;;;;6.25;2.90;;;27.10;68.60;;;;;;5028785;28;20060;-74
2022/05/16 11:03:05;;;;;;;3.25;2.42;;;27.30;67.60;;;;;;5029297;28;20032;-74
2022/05/16 11:05:56;;;;;;;5.20;2.13;;;27.60;68.10;;;;;;5029128;28;20021;-74
2022/05/16 11:08:54;;;;;;;5.32;4.10;;;27.70;69.30;;;;;;5020330;28;20505;-74
2022/05/16 11:11:41;;;;;;;3.55;2.45;;;27.90;66.60;;;;;;5001165;28;20049;-74
2022/05/16 11:14:21;;;;;;;4.53;2.58;;;27.70;66.90;;;;;;5024424;28;20391;-73
2022/05/16 11:16:50;;;;;;;5.55;2.50;;;27.70;68.50;;;;;;5029093;28;20482;-74
2022/05/16 11:19:24;;;;;;;5.22;3.05;;;29.10;69.30;;;;;;5019079;28;20494;-74
2022/05/16 11:22:05;;;;;;;4.45;2.45;;;27.70;66.80;;;;;;5010893;28;20054;-74
2022/05/16 11:24:39;;;;;;;3.50;3.00;;;27.60;67.00;;;;;;5015011;28;20056;-74
2022/05/16 11:27:10;;;;;;;5.28;3.45;;;27.40;69.30;;;;;;5028058;28;20581;-73
2022/05/16 11:29:56;;;;;;;4.63;3.08;;;27.30;70.00;;;;;;5027591;28;20037;-74
2022/05/16 11:32:30;;;;;;;3.92;2.65;;;27.10;68.40;;;;;;5028587;28;20117;-73
2022/05/16 11:35:05;;;;;;;4.13;2.80;;;27.00;70.70;;;;;;5025699;28;20030;-74
2022/05/16 11:38:02;;;;;;;4.65;2.80;;;27.00;70.90;;;;;;5032021;28;20091;-73
2022/05/16 11:40:36;;;;;;;5.18;2.63;;;27.10;69.30;;;;;;5031820;28;20045;-74
2022/05/16 11:43:05;;;;;;;5.57;3.17;;;27.10;68.90;;;;;;5031648;28;20052;-74
2022/05/16 11:45:43;;;;;;;4.93;3.25;;;27.10;68.30;;;;;;5029476;28;20014;-73
2022/05/16 11:48:25;;;;;;;6.05;2.38;;;26.90;68.90;;;;;;5031205;28;20038;-72
2022/05/16 11:51:10;;;;;;;5.75;2.53;;;26.50;70.70;;;;;;5028503;28;20513;-73
2022/05/16 11:53:47;;;;;;;5.40;2.40;;;26.10;72.40;;;;;;5030961;28;20494;-72
2022/05/16 12:02:26;;;;;;;3.50;2.35;;;25.50;75.40;;;;;;5031797;28;20037;-71
2022/05/16 12:05:10;;;;;;;6.00;3.63;;;25.50;76.10;;;;;;5026036;28;20422;-71
2022/05/16 12:07:35;;;;;;;4.93;3.30;;;25.40;76.30;;;;;;5028074;28;20026;-71
2022/05/16 12:10:22;;;;;;;3.42;3.10;;;25.30;78.60;;;;;;5030755;28;20017;-71
2022/05/16 12:13:08;;;;;;;6.93;3.78;;;26.10;80.50;;;;;;5030638;28;20092;-71
2022/05/16 12:15:34;;;;;;;9.13;4.50;;;25.30;79.70;;;;;;5030853;28;20068;-71
2022/05/16 12:18:06;;;;;;;8.50;4.22;;;25.40;80.90;;;;;;5030779;28;20025;-70
2022/05/16 12:20:37;;;;;;;8.68;3.83;;;25.30;81.50;;;;;;5031598;28;20049;-72
2022/05/16 12:23:03;;;;;;;7.10;4.60;;;25.40;80.40;;;;;;5030349;28;20075;-71
2022/05/16 12:25:32;;;;;;;7.65;4.20;;;25.10;83.60;;;;;;5031449;28;20049;-71
2022/05/16 12:28:13;;;;;;;7.00;5.35;;;24.80;84.80;;;;;;5031143;28;20052;-71
2022/05/16 12:30:39;;;;;;;9.30;5.32;;;24.60;86.10;;;;;;5031070;28;20023;-71
2022/05/16 12:33:26;;;;;;;5.88;5.22;;;24.50;85.70;;;;;;5030669;28;20083;-71
2022/05/16 12:35:53;;;;;;;6.13;4.75;;;24.30;86.40;;;;;;5027456;28;20036;-72
2022/05/16 12:38:21;;;;;;;4.88;3.75;;;24.20;86.30;;;;;;5030676;28;20371;-71
2022/05/16 12:41:07;;;;;;;6.30;4.25;;;24.10;86.90;;;;;;5027280;28;20048;-71
2022/05/16 12:44:01;;;;;;;4.93;3.47;;;24.20;87.50;;;;;;5030708;28;20105;-71
2022/05/16 12:46:39;;;;;;;6.88;3.72;;;24.30;85.40;;;;;;5027217;28;20030;-71
2022/05/16 12:49:43;;;;;;;6.45;4.15;;;24.40;85.50;;;;;;5031002;28;20506;-71
2022/05/16 12:52:47;;;;;;;4.78;4.30;;;23.60;85.20;;;;;;5029161;28;20216;-72
2022/05/16 12:55:22;;;;;;;7.90;5.72;;;24.40;85.80;;;;;;5030973;28;20076;-73
2022/05/16 12:57:59;;;;;;;7.18;5.78;;;24.10;85.60;;;;;;5031051;28;20032;-72
2022/05/16 13:00:31;;;;;;;9.07;5.45;;;23.80;89.50;;;;;;5046646;28;20432;-71
2022/05/16 13:03:20;;;;;;;8.90;6.53;;;23.60;90.00;;;;;;5030983;28;20087;-71
2022/05/16 13:05:55;;;;;;;10.63;7.90;;;23.50;90.70;;;;;;5026418;28;20053;-72
2022/05/16 13:08:29;;;;;;;9.55;6.57;;;23.60;90.60;;;;;;5011417;28;20395;-72
2022/05/16 13:11:16;;;;;;;8.73;7.10;;;23.60;90.50;;;;;;5011167;28;20474;-71
2022/05/16 13:14:10;;;;;;;8.05;7.25;;;24.00;89.30;;;;;;5011453;28;20060;-72
2022/05/16 13:16:40;;;;;;;;;;;24.10;89.10;;;;;;5011699;28;20514;-71
2022/05/16 13:19:15;;;;;;;20.48;16.08;;;23.90;90.70;;;;;;5010827;28;19909;-72
2022/05/16 13:22:16;;;;;;;16.17;14.25;;;23.70;90.00;;;;;;5024178;28;20117;-72
2022/05/16 13:24:41;;;;;;;12.32;10.10;;;23.40;90.40;;;;;;5030782;28;20021;-72
2022/05/16 13:30:16;;;;;;;8.10;6.65;;;22.90;91.10;;;;;;5027702;28;20402;-72
2022/05/16 13:32:42;;;;;;;11.88;8.23;;;22.60;90.30;;;;;;5028353;28;20406;-71
2022/05/16 13:35:11;;;;;;;15.52;7.93;;;23.10;90.90;;;;;;5009458;28;20053;-72
2022/05/16 13:37:49;;;;;;;11.38;8.45;;;22.20;91.20;;;;;;5008478;28;20026;-71
2022/05/16 13:40:23;;;;;;;13.63;8.27;;;22.00;91.70;;;;;;5018005;28;20435;-72